sensor_id;sensor_type;location;lat;lon;timestamp;temperature;humidity
12761;DHT22;6444;49.742;6.114;2023-02-26T00:01:52;0.70;99.90
12761;DHT22;6444;49.742;6.114;2023-02-26T00:04:18;0.30;99.90
12761;DHT22;6444;49.742;6.114;2023-02-26T00:06:45;0.10;99.90
12761;DHT22;6444;49.742;6.114;2023-02-26T00:09:17;0.30;99.90
12761;DHT22;6444;49.742;6.114;2023-02-26T00:11:44;0.50;99.90
12761;DHT22;6444;49.742;6.114;2023-02-26T00:14:12;0.20;99.90
12761;DHT22;6444;49.742;6.114;2023-02-26T00:16:38;0.50;99.90
12761;DHT22;6444;49.742;6.114;2023-02-26T00:19:05;0.40;99.90
12761;DHT22;6444;49.742;6.114;2023-02-26T00:21:32;0.50;99.90
12761;DHT22;6444;49.742;6.114;2023-02-26T00:23:58;0.90;99.90
12761;DHT22;6444;49.742;6.114;2023-02-26T00:26:25;0.30;99.90
12761;DHT22;6444;49.742;6.114;2023-02-26T00:28:51;-0.50;99.90
12761;DHT22;6444;49.742;6.114;2023-02-26T00:31:19;-0.20;99.90
12761;DHT22;6444;49.742;6.114;2023-02-26T00:33:45;-0.30;99.90
12761;DHT22;6444;49.742;6.114;2023-02-26T00:38:45;-0.30;99.90
12761;DHT22;6444;49.742;6.114;2023-02-26T00:41:11;-0.10;99.90
12761;DHT22;6444;49.742;6.114;2023-02-26T00:43:38;0.00;99.90
12761;DHT22;6444;49.742;6.114;2023-02-26T00:46:43;-0.30;99.90
12761;DHT22;6444;49.742;6.114;2023-02-26T00:52:05;0.50;99.90
12761;DHT22;6444;49.742;6.114;2023-02-26T00:54:31;0.50;99.90
12761;DHT22;6444;49.742;6.114;2023-02-26T00:56:58;0.60;99.90
12761;DHT22;6444;49.742;6.114;2023-02-26T00:59:24;0.70;99.90
12761;DHT22;6444;49.742;6.114;2023-02-26T01:01:51;0.10;99.90
12761;DHT22;6444;49.742;6.114;2023-02-26T01:04:19;1.00;99.90
12761;DHT22;6444;49.742;6.114;2023-02-26T01:06:47;0.90;99.90
12761;DHT22;6444;49.742;6.114;2023-02-26T01:09:14;1.50;99.90
12761;DHT22;6444;49.742;6.114;2023-02-26T01:11:38;1.60;99.90
12761;DHT22;6444;49.742;6.114;2023-02-26T01:14:05;1.50;99.90
12761;DHT22;6444;49.742;6.114;2023-02-26T01:16:53;1.50;99.90
12761;DHT22;6444;49.742;6.114;2023-02-26T01:19:02;1.70;99.90
12761;DHT22;6444;49.742;6.114;2023-02-26T01:21:30;1.60;99.90
12761;DHT22;6444;49.742;6.114;2023-02-26T01:23:54;1.80;99.90
12761;DHT22;6444;49.742;6.114;2023-02-26T01:26:22;1.70;99.90
12761;DHT22;6444;49.742;6.114;2023-02-26T01:28:48;1.20;99.90
12761;DHT22;6444;49.742;6.114;2023-02-26T01:31:22;1.30;99.90
12761;DHT22;6444;49.742;6.114;2023-02-26T01:33:45;1.40;99.90
12761;DHT22;6444;49.742;6.114;2023-02-26T01:36:20;1.60;99.90
12761;DHT22;6444;49.742;6.114;2023-02-26T01:38:59;1.10;99.90
12761;DHT22;6444;49.742;6.114;2023-02-26T01:41:44;1.30;99.90
12761;DHT22;6444;49.742;6.114;2023-02-26T01:47:10;1.30;99.90
12761;DHT22;6444;49.742;6.114;2023-02-26T01:49:36;1.30;99.90
12761;DHT22;6444;49.742;6.114;2023-02-26T01:52:06;1.20;99.90
12761;DHT22;6444;49.742;6.114;2023-02-26T01:54:36;1.40;99.90
12761;DHT22;6444;49.742;6.114;2023-02-26T01:57:11;1.50;99.90
12761;DHT22;6444;49.742;6.114;2023-02-26T01:59:38;1.50;99.90
12761;DHT22;6444;49.742;6.114;2023-02-26T02:02:05;1.50;99.90
12761;DHT22;6444;49.742;6.114;2023-02-26T02:04:30;1.40;99.90
12761;DHT22;6444;49.742;6.114;2023-02-26T02:06:57;1.20;99.90
12761;DHT22;6444;49.742;6.114;2023-02-26T02:09:24;1.20;99.90
12761;DHT22;6444;49.742;6.114;2023-02-26T02:27:03;0.40;99.90
12761;DHT22;6444;49.742;6.114;2023-02-26T02:28:51;0.50;99.90
12761;DHT22;6444;49.742;6.114;2023-02-26T02:31:14;-0.30;99.90
12761;DHT22;6444;49.742;6.114;2023-02-26T02:33:44;-0.40;99.90
12761;DHT22;6444;49.742;6.114;2023-02-26T02:36:25;-0.80;99.90
12761;DHT22;6444;49.742;6.114;2023-02-26T02:38:49;-0.20;99.90
12761;DHT22;6444;49.742;6.114;2023-02-26T02:41:22;0.30;99.90
12761;DHT22;6444;49.742;6.114;2023-02-26T02:43:47;0.50;99.90
12761;DHT22;6444;49.742;6.114;2023-02-26T02:46:20;0.50;99.90
12761;DHT22;6444;49.742;6.114;2023-02-26T02:51:23;0.60;99.90
12761;DHT22;6444;49.742;6.114;2023-02-26T02:53:50;-0.10;99.90
12761;DHT22;6444;49.742;6.114;2023-02-26T02:56:34;-0.20;99.90
12761;DHT22;6444;49.742;6.114;2023-02-26T02:59:02;-0.50;99.90
12761;DHT22;6444;49.742;6.114;2023-02-26T03:01:27;0.20;99.90
12761;DHT22;6444;49.742;6.114;2023-02-26T03:03:56;0.20;99.90
12761;DHT22;6444;49.742;6.114;2023-02-26T03:06:21;0.60;99.90
12761;DHT22;6444;49.742;6.114;2023-02-26T03:08:47;0.70;99.90
12761;DHT22;6444;49.742;6.114;2023-02-26T03:11:15;1.60;99.90
12761;DHT22;6444;49.742;6.114;2023-02-26T03:13:41;1.50;99.90
12761;DHT22;6444;49.742;6.114;2023-02-26T03:19:17;1.80;99.90
12761;DHT22;6444;49.742;6.114;2023-02-26T03:24:39;1.80;99.90
12761;DHT22;6444;49.742;6.114;2023-02-26T03:27:19;1.60;99.90
12761;DHT22;6444;49.742;6.114;2023-02-26T03:30:00;1.70;99.90
12761;DHT22;6444;49.742;6.114;2023-02-26T03:35:10;1.20;99.90
12761;DHT22;6444;49.742;6.114;2023-02-26T03:37:39;1.40;99.90
12761;DHT22;6444;49.742;6.114;2023-02-26T03:40:18;1.40;99.90
12761;DHT22;6444;49.742;6.114;2023-02-26T03:42:44;1.60;99.90
12761;DHT22;6444;49.742;6.114;2023-02-26T03:45:11;1.40;99.90
12761;DHT22;6444;49.742;6.114;2023-02-26T03:47:36;1.60;99.90
12761;DHT22;6444;49.742;6.114;2023-02-26T03:50:06;1.60;99.90
12761;DHT22;6444;49.742;6.114;2023-02-26T03:52:33;1.70;99.90
12761;DHT22;6444;49.742;6.114;2023-02-26T03:55:04;1.70;99.90
12761;DHT22;6444;49.742;6.114;2023-02-26T03:57:28;1.70;99.90
12761;DHT22;6444;49.742;6.114;2023-02-26T03:59:55;1.30;99.90
12761;DHT22;6444;49.742;6.114;2023-02-26T04:02:32;1.30;99.90
12761;DHT22;6444;49.742;6.114;2023-02-26T04:07:36;1.90;99.90
12761;DHT22;6444;49.742;6.114;2023-02-26T04:10:03;2.10;99.90
12761;DHT22;6444;49.742;6.114;2023-02-26T04:12:30;2.30;99.90
12761;DHT22;6444;49.742;6.114;2023-02-26T04:14:56;2.40;99.90
12761;DHT22;6444;49.742;6.114;2023-02-26T04:17:24;2.50;99.90
12761;DHT22;6444;49.742;6.114;2023-02-26T04:19:50;2.50;99.90
12761;DHT22;6444;49.742;6.114;2023-02-26T04:22:17;2.60;99.90
12761;DHT22;6444;49.742;6.114;2023-02-26T04:24:44;2.40;99.90
12761;DHT22;6444;49.742;6.114;2023-02-26T04:27:11;2.40;99.90
12761;DHT22;6444;49.742;6.114;2023-02-26T04:29:37;2.40;99.90
12761;DHT22;6444;49.742;6.114;2023-02-26T04:32:05;2.30;99.90
12761;DHT22;6444;49.742;6.114;2023-02-26T04:34:31;2.30;99.90
12761;DHT22;6444;49.742;6.114;2023-02-26T04:36:58;2.10;99.90
12761;DHT22;6444;49.742;6.114;2023-02-26T04:39:25;1.90;99.90
12761;DHT22;6444;49.742;6.114;2023-02-26T04:41:52;2.00;99.90
12761;DHT22;6444;49.742;6.114;2023-02-26T04:44:19;1.90;99.90
12761;DHT22;6444;49.742;6.114;2023-02-26T04:46:45;2.00;99.90
12761;DHT22;6444;49.742;6.114;2023-02-26T04:49:13;1.00;99.90
12761;DHT22;6444;49.742;6.114;2023-02-26T04:51:39;1.00;99.90
12761;DHT22;6444;49.742;6.114;2023-02-26T04:54:06;1.10;99.90
12761;DHT22;6444;49.742;6.114;2023-02-26T04:56:33;0.90;99.90
12761;DHT22;6444;49.742;6.114;2023-02-26T04:59:00;0.90;99.90
12761;DHT22;6444;49.742;6.114;2023-02-26T05:01:27;1.10;99.90
12761;DHT22;6444;49.742;6.114;2023-02-26T05:03:54;0.80;99.90
12761;DHT22;6444;49.742;6.114;2023-02-26T05:06:21;0.80;99.90
12761;DHT22;6444;49.742;6.114;2023-02-26T05:08:47;1.10;99.90
12761;DHT22;6444;49.742;6.114;2023-02-26T05:11:14;0.80;99.90
12761;DHT22;6444;49.742;6.114;2023-02-26T05:13:41;0.90;99.90
12761;DHT22;6444;49.742;6.114;2023-02-26T05:16:08;0.90;99.90
12761;DHT22;6444;49.742;6.114;2023-02-26T05:18:35;0.90;99.90
12761;DHT22;6444;49.742;6.114;2023-02-26T05:21:02;0.40;99.90
12761;DHT22;6444;49.742;6.114;2023-02-26T05:23:28;0.40;99.90
12761;DHT22;6444;49.742;6.114;2023-02-26T05:25:55;0.60;99.90
12761;DHT22;6444;49.742;6.114;2023-02-26T05:28:23;1.00;99.90
12761;DHT22;6444;49.742;6.114;2023-02-26T05:30:49;0.90;99.90
12761;DHT22;6444;49.742;6.114;2023-02-26T05:33:16;1.20;99.90
12761;DHT22;6444;49.742;6.114;2023-02-26T05:35:42;1.20;99.90
12761;DHT22;6444;49.742;6.114;2023-02-26T05:38:10;1.00;99.90
12761;DHT22;6444;49.742;6.114;2023-02-26T05:40:36;1.00;99.90
12761;DHT22;6444;49.742;6.114;2023-02-26T05:43:03;1.20;99.90
12761;DHT22;6444;49.742;6.114;2023-02-26T05:45:30;1.50;99.90
12761;DHT22;6444;49.742;6.114;2023-02-26T05:47:57;1.40;99.90
12761;DHT22;6444;49.742;6.114;2023-02-26T05:50:24;1.50;99.90
12761;DHT22;6444;49.742;6.114;2023-02-26T05:52:50;1.80;99.90
12761;DHT22;6444;49.742;6.114;2023-02-26T05:55:18;1.10;99.90
12761;DHT22;6444;49.742;6.114;2023-02-26T05:57:44;1.00;99.90
12761;DHT22;6444;49.742;6.114;2023-02-26T06:00:11;1.30;99.90
12761;DHT22;6444;49.742;6.114;2023-02-26T06:02:39;0.70;99.90
12761;DHT22;6444;49.742;6.114;2023-02-26T06:05:05;0.70;99.90
12761;DHT22;6444;49.742;6.114;2023-02-26T06:07:33;1.10;99.90
12761;DHT22;6444;49.742;6.114;2023-02-26T06:09:59;1.10;99.90
12761;DHT22;6444;49.742;6.114;2023-02-26T06:12:26;0.90;99.90
12761;DHT22;6444;49.742;6.114;2023-02-26T06:14:54;1.00;99.90
12761;DHT22;6444;49.742;6.114;2023-02-26T06:17:20;0.90;99.90
12761;DHT22;6444;49.742;6.114;2023-02-26T06:19:47;1.50;99.90
12761;DHT22;6444;49.742;6.114;2023-02-26T06:22:13;1.90;99.90
12761;DHT22;6444;49.742;6.114;2023-02-26T06:24:41;1.90;99.90
12761;DHT22;6444;49.742;6.114;2023-02-26T06:27:07;1.90;99.90
12761;DHT22;6444;49.742;6.114;2023-02-26T06:29:34;2.00;99.90
12761;DHT22;6444;49.742;6.114;2023-02-26T06:32:01;2.30;99.90
12761;DHT22;6444;49.742;6.114;2023-02-26T06:34:28;2.40;99.90
12761;DHT22;6444;49.742;6.114;2023-02-26T06:36:55;2.40;99.90
12761;DHT22;6444;49.742;6.114;2023-02-26T06:39:21;2.70;99.90
12761;DHT22;6444;49.742;6.114;2023-02-26T06:41:48;2.50;99.90
12761;DHT22;6444;49.742;6.114;2023-02-26T06:44:15;1.10;99.90
12761;DHT22;6444;49.742;6.114;2023-02-26T06:46:42;1.00;99.90
12761;DHT22;6444;49.742;6.114;2023-02-26T06:49:09;0.80;99.90
12761;DHT22;6444;49.742;6.114;2023-02-26T06:51:36;2.10;99.90
12761;DHT22;6444;49.742;6.114;2023-02-26T06:54:03;2.10;99.90
12761;DHT22;6444;49.742;6.114;2023-02-26T06:56:29;2.50;99.90
12761;DHT22;6444;49.742;6.114;2023-02-26T06:58:56;2.70;99.90
12761;DHT22;6444;49.742;6.114;2023-02-26T07:01:23;2.50;99.90
12761;DHT22;6444;49.742;6.114;2023-02-26T07:03:50;2.50;99.90
12761;DHT22;6444;49.742;6.114;2023-02-26T07:06:17;2.00;99.90
12761;DHT22;6444;49.742;6.114;2023-02-26T07:08:43;2.30;99.90
12761;DHT22;6444;49.742;6.114;2023-02-26T07:11:10;1.90;99.90
12761;DHT22;6444;49.742;6.114;2023-02-26T07:13:37;2.00;99.90
12761;DHT22;6444;49.742;6.114;2023-02-26T07:16:03;1.80;99.90
12761;DHT22;6444;49.742;6.114;2023-02-26T07:18:30;1.70;99.90
12761;DHT22;6444;49.742;6.114;2023-02-26T07:20:56;1.90;99.90
12761;DHT22;6444;49.742;6.114;2023-02-26T07:23:23;1.60;99.90
12761;DHT22;6444;49.742;6.114;2023-02-26T07:25:50;1.70;99.90
12761;DHT22;6444;49.742;6.114;2023-02-26T07:28:17;1.60;99.90
12761;DHT22;6444;49.742;6.114;2023-02-26T07:30:44;2.50;99.90
12761;DHT22;6444;49.742;6.114;2023-02-26T07:33:10;2.10;99.90
12761;DHT22;6444;49.742;6.114;2023-02-26T07:35:38;4.00;99.90
12761;DHT22;6444;49.742;6.114;2023-02-26T07:38:05;3.90;99.90
12761;DHT22;6444;49.742;6.114;2023-02-26T07:40:31;3.70;99.90
12761;DHT22;6444;49.742;6.114;2023-02-26T07:42:58;3.40;99.90
12761;DHT22;6444;49.742;6.114;2023-02-26T07:45:24;2.90;99.90
12761;DHT22;6444;49.742;6.114;2023-02-26T07:47:52;3.00;99.90
12761;DHT22;6444;49.742;6.114;2023-02-26T07:50:18;2.90;99.90
12761;DHT22;6444;49.742;6.114;2023-02-26T07:52:45;1.00;99.90
12761;DHT22;6444;49.742;6.114;2023-02-26T07:55:12;1.00;99.90
12761;DHT22;6444;49.742;6.114;2023-02-26T07:57:39;1.00;99.90
12761;DHT22;6444;49.742;6.114;2023-02-26T08:00:06;1.80;99.90
12761;DHT22;6444;49.742;6.114;2023-02-26T08:02:32;2.20;99.90
12761;DHT22;6444;49.742;6.114;2023-02-26T08:04:59;2.20;99.90
12761;DHT22;6444;49.742;6.114;2023-02-26T08:07:25;2.30;99.90
12761;DHT22;6444;49.742;6.114;2023-02-26T08:09:52;2.20;99.90
12761;DHT22;6444;49.742;6.114;2023-02-26T08:12:19;2.10;99.90
12761;DHT22;6444;49.742;6.114;2023-02-26T08:14:46;3.30;99.90
12761;DHT22;6444;49.742;6.114;2023-02-26T08:17:13;3.20;99.90
12761;DHT22;6444;49.742;6.114;2023-02-26T08:19:39;3.20;99.90
12761;DHT22;6444;49.742;6.114;2023-02-26T08:22:06;4.50;99.90
12761;DHT22;6444;49.742;6.114;2023-02-26T08:24:33;8.40;99.30
12761;DHT22;6444;49.742;6.114;2023-02-26T08:27:00;8.30;99.20
12761;DHT22;6444;49.742;6.114;2023-02-26T08:29:27;8.90;97.40
12761;DHT22;6444;49.742;6.114;2023-02-26T08:31:53;9.60;97.80
12761;DHT22;6444;49.742;6.114;2023-02-26T08:34:20;11.50;95.60
12761;DHT22;6444;49.742;6.114;2023-02-26T08:36:47;10.10;92.90
12761;DHT22;6444;49.742;6.114;2023-02-26T08:39:14;10.00;93.10
12761;DHT22;6444;49.742;6.114;2023-02-26T08:41:41;9.00;93.30
12761;DHT22;6444;49.742;6.114;2023-02-26T08:44:08;7.70;96.60
12761;DHT22;6444;49.742;6.114;2023-02-26T08:46:35;7.70;96.50
12761;DHT22;6444;49.742;6.114;2023-02-26T08:49:01;8.30;93.50
12761;DHT22;6444;49.742;6.114;2023-02-26T08:51:28;7.10;96.20
12761;DHT22;6444;49.742;6.114;2023-02-26T08:53:55;7.70;94.30
12761;DHT22;6444;49.742;6.114;2023-02-26T08:56:22;7.60;94.20
12761;DHT22;6444;49.742;6.114;2023-02-26T08:58:49;6.80;95.30
12761;DHT22;6444;49.742;6.114;2023-02-26T09:01:15;7.90;96.10
12761;DHT22;6444;49.742;6.114;2023-02-26T09:03:43;6.20;95.70
12761;DHT22;6444;49.742;6.114;2023-02-26T09:06:09;6.10;95.60
12761;DHT22;6444;49.742;6.114;2023-02-26T09:08:36;5.00;95.30
12761;DHT22;6444;49.742;6.114;2023-02-26T09:11:03;4.20;96.60
12761;DHT22;6444;49.742;6.114;2023-02-26T09:13:30;4.10;96.60
12761;DHT22;6444;49.742;6.114;2023-02-26T09:15:56;3.60;97.70
12761;DHT22;6444;49.742;6.114;2023-02-26T09:18:23;3.70;97.70
12761;DHT22;6444;49.742;6.114;2023-02-26T09:20:50;3.10;98.40
12761;DHT22;6444;49.742;6.114;2023-02-26T09:23:16;3.50;98.10
12761;DHT22;6444;49.742;6.114;2023-02-26T09:25:44;3.40;97.40
12761;DHT22;6444;49.742;6.114;2023-02-26T09:28:11;2.50;98.10
12761;DHT22;6444;49.742;6.114;2023-02-26T09:30:38;2.50;98.10
12761;DHT22;6444;49.742;6.114;2023-02-26T09:33:04;2.70;99.30
12761;DHT22;6444;49.742;6.114;2023-02-26T09:35:32;3.00;99.00
12761;DHT22;6444;49.742;6.114;2023-02-26T09:37:58;2.90;99.00
12761;DHT22;6444;49.742;6.114;2023-02-26T09:43:17;2.50;98.30
12761;DHT22;6444;49.742;6.114;2023-02-26T09:45:40;2.00;99.30
12761;DHT22;6444;49.742;6.114;2023-02-26T09:48:07;2.30;99.80
12761;DHT22;6444;49.742;6.114;2023-02-26T09:50:45;2.10;99.40
12761;DHT22;6444;49.742;6.114;2023-02-26T09:53:27;3.20;99.90
12761;DHT22;6444;49.742;6.114;2023-02-26T09:55:51;4.70;97.20
12761;DHT22;6444;49.742;6.114;2023-02-26T09:58:32;4.30;96.70
12761;DHT22;6444;49.742;6.114;2023-02-26T10:06:25;3.60;99.60
12761;DHT22;6444;49.742;6.114;2023-02-26T10:11:19;6.70;98.00
12761;DHT22;6444;49.742;6.114;2023-02-26T10:13:49;8.10;93.00
12761;DHT22;6444;49.742;6.114;2023-02-26T10:16:21;6.40;93.90
12761;DHT22;6444;49.742;6.114;2023-02-26T10:18:46;6.30;93.80
12761;DHT22;6444;49.742;6.114;2023-02-26T10:23:49;5.50;94.10
12761;DHT22;6444;49.742;6.114;2023-02-26T10:26:25;4.80;94.40
12761;DHT22;6444;49.742;6.114;2023-02-26T10:35:06;4.10;95.00
12761;DHT22;6444;49.742;6.114;2023-02-26T10:43:03;3.10;95.70
12761;DHT22;6444;49.742;6.114;2023-02-26T10:45:39;3.20;95.00
12761;DHT22;6444;49.742;6.114;2023-02-26T10:48:15;3.10;96.30
12761;DHT22;6444;49.742;6.114;2023-02-26T10:50:38;3.50;95.30
12761;DHT22;6444;49.742;6.114;2023-02-26T10:53:04;2.70;95.40
12761;DHT22;6444;49.742;6.114;2023-02-26T10:55:50;2.90;95.70
12761;DHT22;6444;49.742;6.114;2023-02-26T10:58:17;3.40;95.60
12761;DHT22;6444;49.742;6.114;2023-02-26T11:00:44;3.70;93.90
12761;DHT22;6444;49.742;6.114;2023-02-26T11:03:14;2.90;94.70
12761;DHT22;6444;49.742;6.114;2023-02-26T11:05:36;2.90;94.00
12761;DHT22;6444;49.742;6.114;2023-02-26T11:08:10;2.50;94.70
12761;DHT22;6444;49.742;6.114;2023-02-26T11:10:44;3.50;95.30
12761;DHT22;6444;49.742;6.114;2023-02-26T11:13:07;4.10;93.50
12761;DHT22;6444;49.742;6.114;2023-02-26T11:15:34;3.10;93.70
12761;DHT22;6444;49.742;6.114;2023-02-26T11:18:01;3.20;94.20
12761;DHT22;6444;49.742;6.114;2023-02-26T11:20:32;3.60;94.10
12761;DHT22;6444;49.742;6.114;2023-02-26T11:22:57;4.30;94.70
12761;DHT22;6444;49.742;6.114;2023-02-26T11:25:24;4.40;93.50
12761;DHT22;6444;49.742;6.114;2023-02-26T11:27:52;3.90;92.00
12761;DHT22;6444;49.742;6.114;2023-02-26T11:30:17;3.30;93.20
12761;DHT22;6444;49.742;6.114;2023-02-26T11:32:43;3.00;93.30
12761;DHT22;6444;49.742;6.114;2023-02-26T11:35:14;2.90;93.80
12761;DHT22;6444;49.742;6.114;2023-02-26T11:37:41;2.90;93.60
12761;DHT22;6444;49.742;6.114;2023-02-26T11:40:17;2.80;93.50
12761;DHT22;6444;49.742;6.114;2023-02-26T11:42:34;3.10;93.70
12761;DHT22;6444;49.742;6.114;2023-02-26T11:45:00;3.30;94.00
12761;DHT22;6444;49.742;6.114;2023-02-26T11:47:28;3.40;94.70
12761;DHT22;6444;49.742;6.114;2023-02-26T11:49:55;3.40;94.60
12761;DHT22;6444;49.742;6.114;2023-02-26T11:52:22;3.80;94.80
12761;DHT22;6444;49.742;6.114;2023-02-26T11:54:50;3.60;93.60
12761;DHT22;6444;49.742;6.114;2023-02-26T11:57:17;3.60;93.50
12761;DHT22;6444;49.742;6.114;2023-02-26T11:59:43;3.70;93.40
12761;DHT22;6444;49.742;6.114;2023-02-26T12:02:10;3.70;93.70
12761;DHT22;6444;49.742;6.114;2023-02-26T12:04:37;4.30;94.00
12761;DHT22;6444;49.742;6.114;2023-02-26T12:07:02;4.90;93.20
12761;DHT22;6444;49.742;6.114;2023-02-26T12:09:29;5.00;93.50
12761;DHT22;6444;49.742;6.114;2023-02-26T12:15:02;4.80;94.90
12761;DHT22;6444;49.742;6.114;2023-02-26T12:17:47;3.90;93.60
12761;DHT22;6444;49.742;6.114;2023-02-26T12:20:29;4.00;94.80
12761;DHT22;6444;49.742;6.114;2023-02-26T12:25:40;3.70;93.50
12761;DHT22;6444;49.742;6.114;2023-02-26T12:30:56;3.00;94.70
12761;DHT22;6444;49.742;6.114;2023-02-26T12:33:40;2.80;94.90
12761;DHT22;6444;49.742;6.114;2023-02-26T12:36:11;2.80;94.30
12761;DHT22;6444;49.742;6.114;2023-02-26T12:38:39;3.10;94.80
12761;DHT22;6444;49.742;6.114;2023-02-26T12:43:45;3.50;93.80
12761;DHT22;6444;49.742;6.114;2023-02-26T12:46:42;3.60;93.60
12761;DHT22;6444;49.742;6.114;2023-02-26T12:52:09;3.20;94.10
12761;DHT22;6444;49.742;6.114;2023-02-26T12:57:20;3.80;95.70
12761;DHT22;6444;49.742;6.114;2023-02-26T13:05:06;6.40;94.00
12761;DHT22;6444;49.742;6.114;2023-02-26T13:10:14;4.70;93.90
12761;DHT22;6444;49.742;6.114;2023-02-26T13:12:48;4.20;93.20
12761;DHT22;6444;49.742;6.114;2023-02-26T13:15:48;3.30;93.70
12761;DHT22;6444;49.742;6.114;2023-02-26T13:18:19;3.70;94.30
12761;DHT22;6444;49.742;6.114;2023-02-26T13:20:49;3.70;94.30
12761;DHT22;6444;49.742;6.114;2023-02-26T13:23:19;3.80;93.70
12761;DHT22;6444;49.742;6.114;2023-02-26T13:25:46;4.30;93.70
12761;DHT22;6444;49.742;6.114;2023-02-26T13:28:35;4.30;93.00
12761;DHT22;6444;49.742;6.114;2023-02-26T13:30:39;3.20;95.30
12761;DHT22;6444;49.742;6.114;2023-02-26T13:33:06;3.20;95.30
12761;DHT22;6444;49.742;6.114;2023-02-26T13:35:38;3.20;96.10
12761;DHT22;6444;49.742;6.114;2023-02-26T13:38:18;3.50;96.80
12761;DHT22;6444;49.742;6.114;2023-02-26T13:41:04;3.30;97.10
12761;DHT22;6444;49.742;6.114;2023-02-26T13:43:42;4.10;96.30
12761;DHT22;6444;49.742;6.114;2023-02-26T13:48:52;3.80;95.60
12761;DHT22;6444;49.742;6.114;2023-02-26T13:51:28;3.30;95.50
12761;DHT22;6444;49.742;6.114;2023-02-26T13:53:56;3.10;96.10
12761;DHT22;6444;49.742;6.114;2023-02-26T13:59:29;3.10;95.60
12761;DHT22;6444;49.742;6.114;2023-02-26T14:01:33;3.10;95.60
12761;DHT22;6444;49.742;6.114;2023-02-26T14:04:06;3.30;95.70
12761;DHT22;6444;49.742;6.114;2023-02-26T14:09:03;4.10;95.70
12761;DHT22;6444;49.742;6.114;2023-02-26T14:11:33;4.00;95.70
12761;DHT22;6444;49.742;6.114;2023-02-26T14:16:32;4.30;95.00
12761;DHT22;6444;49.742;6.114;2023-02-26T14:19:04;4.30;94.00
12761;DHT22;6444;49.742;6.114;2023-02-26T14:23:57;4.80;92.70
12761;DHT22;6444;49.742;6.114;2023-02-26T14:26:23;4.80;93.30
12761;DHT22;6444;49.742;6.114;2023-02-26T14:28:57;4.30;93.90
12761;DHT22;6444;49.742;6.114;2023-02-26T14:31:23;4.00;94.50
12761;DHT22;6444;49.742;6.114;2023-02-26T14:36:44;2.60;95.60
12761;DHT22;6444;49.742;6.114;2023-02-26T14:39:12;2.60;95.80
12761;DHT22;6444;49.742;6.114;2023-02-26T14:41:37;2.70;96.50
12761;DHT22;6444;49.742;6.114;2023-02-26T14:44:10;3.00;96.60
12761;DHT22;6444;49.742;6.114;2023-02-26T14:46:32;2.90;96.50
12761;DHT22;6444;49.742;6.114;2023-02-26T14:48:59;3.40;96.20
12761;DHT22;6444;49.742;6.114;2023-02-26T14:59:27;2.70;96.30
12761;DHT22;6444;49.742;6.114;2023-02-26T15:10:21;3.20;94.90
12761;DHT22;6444;49.742;6.114;2023-02-26T15:18:33;3.10;95.00
12761;DHT22;6444;49.742;6.114;2023-02-26T15:21:22;3.10;95.00
12761;DHT22;6444;49.742;6.114;2023-02-26T15:23:52;3.10;93.90
12761;DHT22;6444;49.742;6.114;2023-02-26T15:26:28;2.80;94.80
12761;DHT22;6444;49.742;6.114;2023-02-26T15:28:53;3.30;94.00
12761;DHT22;6444;49.742;6.114;2023-02-26T15:31:21;3.20;93.70
12761;DHT22;6444;49.742;6.114;2023-02-26T15:33:47;3.10;93.40
12761;DHT22;6444;49.742;6.114;2023-02-26T15:36:15;3.20;93.80
12761;DHT22;6444;49.742;6.114;2023-02-26T15:38:41;3.20;93.70
12761;DHT22;6444;49.742;6.114;2023-02-26T15:41:06;3.50;93.20
12761;DHT22;6444;49.742;6.114;2023-02-26T15:43:34;4.20;93.40
12761;DHT22;6444;49.742;6.114;2023-02-26T15:46:00;4.20;93.30
12761;DHT22;6444;49.742;6.114;2023-02-26T15:51:01;3.40;93.50
12761;DHT22;6444;49.742;6.114;2023-02-26T15:53:43;3.40;93.00
12761;DHT22;6444;49.742;6.114;2023-02-26T15:56:28;3.10;92.50
12761;DHT22;6444;49.742;6.114;2023-02-26T15:58:43;2.70;92.60
12761;DHT22;6444;49.742;6.114;2023-02-26T16:01:12;2.50;93.30
12761;DHT22;6444;49.742;6.114;2023-02-26T16:03:35;2.50;93.60
12761;DHT22;6444;49.742;6.114;2023-02-26T16:06:01;2.50;93.50
12761;DHT22;6444;49.742;6.114;2023-02-26T16:08:27;2.50;94.40
12761;DHT22;6444;49.742;6.114;2023-02-26T16:13:28;2.40;93.60
12761;DHT22;6444;49.742;6.114;2023-02-26T16:15:52;2.40;94.50
12761;DHT22;6444;49.742;6.114;2023-02-26T16:18:21;2.70;94.40
12761;DHT22;6444;49.742;6.114;2023-02-26T16:20:47;3.20;94.00
12761;DHT22;6444;49.742;6.114;2023-02-26T16:23:16;3.10;93.50
12761;DHT22;6444;49.742;6.114;2023-02-26T16:25:54;2.80;94.10
12761;DHT22;6444;49.742;6.114;2023-02-26T16:28:22;2.50;94.00
12761;DHT22;6444;49.742;6.114;2023-02-26T16:30:48;2.50;94.00
12761;DHT22;6444;49.742;6.114;2023-02-26T16:33:15;2.90;94.50
12761;DHT22;6444;49.742;6.114;2023-02-26T16:35:43;2.40;93.90
12761;DHT22;6444;49.742;6.114;2023-02-26T16:38:18;2.40;93.90
12761;DHT22;6444;49.742;6.114;2023-02-26T16:40:42;2.60;94.60
12761;DHT22;6444;49.742;6.114;2023-02-26T16:43:33;2.50;94.70
12761;DHT22;6444;49.742;6.114;2023-02-26T16:45:59;2.60;94.60
12761;DHT22;6444;49.742;6.114;2023-02-26T16:50:59;2.90;94.80
12761;DHT22;6444;49.742;6.114;2023-02-26T16:53:28;3.30;93.90
12761;DHT22;6444;49.742;6.114;2023-02-26T16:55:51;3.00;93.70
12761;DHT22;6444;49.742;6.114;2023-02-26T16:58:18;2.30;93.90
12761;DHT22;6444;49.742;6.114;2023-02-26T17:00:44;2.40;94.40
12761;DHT22;6444;49.742;6.114;2023-02-26T17:03:18;2.20;94.30
12761;DHT22;6444;49.742;6.114;2023-02-26T17:05:58;2.20;94.70
12761;DHT22;6444;49.742;6.114;2023-02-26T17:08:28;2.10;94.60
12761;DHT22;6444;49.742;6.114;2023-02-26T17:10:53;2.30;94.10
12761;DHT22;6444;49.742;6.114;2023-02-26T17:13:23;2.40;94.10
12761;DHT22;6444;49.742;6.114;2023-02-26T17:15:45;2.10;94.50
12761;DHT22;6444;49.742;6.114;2023-02-26T17:18:11;2.10;94.50
12761;DHT22;6444;49.742;6.114;2023-02-26T17:20:37;2.20;94.80
12761;DHT22;6444;49.742;6.114;2023-02-26T17:23:05;2.50;94.60
12761;DHT22;6444;49.742;6.114;2023-02-26T17:25:39;2.40;94.50
12761;DHT22;6444;49.742;6.114;2023-02-26T17:28:04;2.20;95.10
12761;DHT22;6444;49.742;6.114;2023-02-26T17:30:31;2.70;95.10
12761;DHT22;6444;49.742;6.114;2023-02-26T17:32:58;2.80;94.20
12761;DHT22;6444;49.742;6.114;2023-02-26T17:35:24;2.80;94.60
12761;DHT22;6444;49.742;6.114;2023-02-26T17:37:50;3.30;93.90
12761;DHT22;6444;49.742;6.114;2023-02-26T17:40:23;3.00;94.60
12761;DHT22;6444;49.742;6.114;2023-02-26T17:42:48;3.00;94.60
12761;DHT22;6444;49.742;6.114;2023-02-26T17:45:14;2.80;94.50
12761;DHT22;6444;49.742;6.114;2023-02-26T17:47:41;3.20;94.00
12761;DHT22;6444;49.742;6.114;2023-02-26T17:50:23;2.30;94.40
12761;DHT22;6444;49.742;6.114;2023-02-26T17:52:47;2.30;94.40
12761;DHT22;6444;49.742;6.114;2023-02-26T17:55:14;2.10;95.40
12761;DHT22;6444;49.742;6.114;2023-02-26T17:57:41;2.00;95.30
12761;DHT22;6444;49.742;6.114;2023-02-26T18:00:09;2.50;95.00
12761;DHT22;6444;49.742;6.114;2023-02-26T18:02:34;2.50;94.80
12761;DHT22;6444;49.742;6.114;2023-02-26T18:05:01;3.00;94.80
12761;DHT22;6444;49.742;6.114;2023-02-26T18:07:27;3.00;94.80
12761;DHT22;6444;49.742;6.114;2023-02-26T18:09:54;3.50;94.60
12761;DHT22;6444;49.742;6.114;2023-02-26T18:12:21;3.70;94.20
12761;DHT22;6444;49.742;6.114;2023-02-26T18:14:48;3.40;94.40
12761;DHT22;6444;49.742;6.114;2023-02-26T18:17:21;3.40;94.40
12761;DHT22;6444;49.742;6.114;2023-02-26T18:19:45;3.60;94.20
12761;DHT22;6444;49.742;6.114;2023-02-26T18:22:12;3.50;94.20